createdAt,value
2017-08-25T00:00:25.685Z,1009.21
2017-08-25T00:01:06.148Z,1009.17
2017-08-25T00:01:46.618Z,1009.18
2017-08-25T00:02:27.113Z,1009.17
2017-08-25T00:03:07.667Z,1009.19
2017-08-25T00:03:47.804Z,1009.17
2017-08-25T00:04:28.292Z,1009.19
2017-08-25T00:05:09.065Z,1009.23
2017-08-25T00:05:49.106Z,1009.21
2017-08-25T00:06:29.547Z,1009.2
2017-08-25T00:07:10.102Z,1009.18
2017-08-25T00:07:50.505Z,1009.18
2017-08-25T00:08:30.892Z,1009.24
2017-08-25T00:09:11.360Z,1009.26
2017-08-25T00:09:51.861Z,1009.25
2017-08-25T00:18:14.009Z,1009.22
2017-08-25T00:24:12.290Z,1009.23
2017-08-25T00:25:09.281Z,1009.24
2017-08-25T00:26:08.791Z,1009.25
2017-08-25T00:27:08.720Z,1009.24
2017-08-25T00:28:07.089Z,1009.26
2017-08-25T00:29:04.165Z,1009.26
2017-08-25T00:29:59.865Z,1009.28
2017-08-25T00:30:54.801Z,1009.28
2017-08-25T00:31:50.654Z,1009.29
2017-08-25T00:32:47.708Z,1009.29
2017-08-25T00:33:45.353Z,1009.29
2017-08-25T00:34:41.206Z,1009.26
2017-08-25T00:35:37.275Z,1009.27
2017-08-25T00:36:30.797Z,1009.27
2017-08-25T00:37:27.564Z,1009.22
2017-08-25T00:38:25.423Z,1009.29
2017-08-25T00:39:23.409Z,1009.25
2017-08-25T00:40:19.931Z,1009.31
2017-08-25T00:41:16.604Z,1009.32
2017-08-25T00:42:13.962Z,1009.33
2017-08-25T00:43:14.837Z,1009.36
2017-08-25T00:44:12.441Z,1009.36
2017-08-25T00:45:10.309Z,1009.33
2017-08-25T00:46:07.602Z,1009.34
2017-08-25T00:47:05.799Z,1009.32
2017-08-25T00:48:08.067Z,1009.35
2017-08-25T00:49:07.943Z,1009.34
2017-08-25T00:50:11.854Z,1009.32
2017-08-25T00:51:14.611Z,1009.34
2017-08-25T00:52:14.988Z,1009.28
2017-08-25T00:53:13.956Z,1009.28
2017-08-25T00:54:16.084Z,1009.25
2017-08-25T00:55:15.551Z,1009.13
2017-08-25T00:56:16.844Z,1009.27
2017-08-25T00:57:16.304Z,1009.27
2017-08-25T00:58:14.428Z,1009.27
2017-08-25T00:59:15.863Z,1009.26
2017-08-25T01:00:14.127Z,1009.31
2017-08-25T01:01:14.499Z,1009.36
2017-08-25T01:02:14.012Z,1009.36
2017-08-25T01:03:13.506Z,1009.39
2017-08-25T01:04:16.535Z,1009.35
2017-08-25T01:05:16.764Z,1009.38
2017-08-25T01:06:17.089Z,1009.41
2017-08-25T01:07:17.093Z,1009.42
2017-08-25T01:08:15.859Z,1009.44
2017-08-25T01:09:14.803Z,1009.42
2017-08-25T01:10:13.927Z,1009.41
2017-08-25T01:11:14.897Z,1009.43
2017-08-25T01:12:12.070Z,1009.39
2017-08-25T01:13:14.140Z,1009.36
2017-08-25T01:14:13.057Z,1009.34
2017-08-25T01:15:11.444Z,1009.34
2017-08-25T01:16:15.991Z,1009.35
2017-08-25T01:17:17.834Z,1009.38
2017-08-25T01:18:21.253Z,1009.36
2017-08-25T01:19:21.401Z,1009.38
2017-08-25T01:20:20.647Z,1009.35
2017-08-25T01:21:19.527Z,1009.34
2017-08-25T01:22:18.468Z,1009.34
2017-08-25T01:23:14.782Z,1009.34
2017-08-25T01:24:14.593Z,1009.4
2017-08-25T01:25:17.372Z,1009.38
2017-08-25T01:26:17.525Z,1009.38
2017-08-25T01:27:18.810Z,1009.37
2017-08-25T01:28:21.722Z,1009.36
2017-08-25T01:29:26.204Z,1009.36
2017-08-25T01:30:23.122Z,1009.37
2017-08-25T01:31:22.874Z,1009.35
2017-08-25T01:33:44.439Z,1009.37
2017-08-25T01:34:24.890Z,1009.39
2017-08-25T01:35:05.259Z,1009.38
2017-08-25T01:35:45.930Z,1009.38
2017-08-25T01:36:26.186Z,1009.36
2017-08-25T01:37:06.610Z,1009.33
2017-08-25T01:37:47.124Z,1009.33
2017-08-25T01:38:27.530Z,1009.34
2017-08-25T01:39:08.120Z,1009.31
2017-08-25T01:39:48.591Z,1009.34
2017-08-25T01:40:29.151Z,1009.38
2017-08-25T01:41:09.558Z,1009.42
2017-08-25T01:41:50.037Z,1009.4
2017-08-25T01:42:30.308Z,1009.41
2017-08-25T01:43:10.875Z,1009.39
2017-08-25T01:43:51.280Z,1009.42
2017-08-25T01:44:31.654Z,1009.45
2017-08-25T01:45:12.108Z,1009.43
2017-08-25T01:45:52.648Z,1009.41
2017-08-25T01:46:33.268Z,1009.46
2017-08-25T01:47:13.900Z,1009.46
2017-08-25T01:47:54.191Z,1009.44
2017-08-25T01:48:34.636Z,1009.38
2017-08-25T01:49:15.081Z,1009.4
2017-08-25T01:49:55.640Z,1009.37
2017-08-25T01:50:36.097Z,1009.38
2017-08-25T01:51:16.442Z,1009.41
2017-08-25T01:51:57.346Z,1009.42
2017-08-25T01:52:37.636Z,1009.39
2017-08-25T01:53:17.997Z,1009.38
2017-08-25T01:53:58.517Z,1009.37
2017-08-25T01:54:38.947Z,1009.39
2017-08-25T01:55:19.350Z,1009.35
2017-08-25T01:56:00.042Z,1009.34
2017-08-25T01:56:40.465Z,1009.36
2017-08-25T01:57:20.978Z,1009.32
2017-08-25T01:58:01.381Z,1009.35
2017-08-25T01:58:41.822Z,1009.36
2017-08-25T01:59:22.381Z,1009.34
2017-08-25T02:00:02.833Z,1009.33
2017-08-25T02:00:43.208Z,1009.32
2017-08-25T02:01:23.654Z,1009.31
2017-08-25T02:02:04.187Z,1009.28
2017-08-25T02:02:44.617Z,1009.28
2017-08-25T02:03:24.991Z,1009.27
2017-08-25T02:04:05.436Z,1009.27
2017-08-25T02:04:45.857Z,1009.3
2017-08-25T02:05:26.175Z,1009.26
2017-08-25T02:06:06.658Z,1009.24
2017-08-25T02:06:46.951Z,1009.23
2017-08-25T02:07:27.455Z,1009.23
2017-08-25T02:08:07.941Z,1009.23
2017-08-25T02:08:48.296Z,1009.21
2017-08-25T02:09:28.728Z,1009.26
2017-08-25T02:10:09.187Z,1009.22
2017-08-25T02:10:49.746Z,1009.22
2017-08-25T02:11:30.194Z,1009.24
2017-08-25T02:12:10.705Z,1009.24
2017-08-25T02:12:51.146Z,1009.24
2017-08-25T02:13:31.693Z,1009.22
2017-08-25T02:14:12.101Z,1009.23
2017-08-25T02:14:52.518Z,1009.22
2017-08-25T02:15:33.035Z,1009.23
2017-08-25T02:16:13.429Z,1009.27
2017-08-25T02:16:53.839Z,1009.24
2017-08-25T02:17:34.285Z,1009.26
2017-08-25T02:18:14.864Z,1009.3
2017-08-25T02:18:55.315Z,1009.28
2017-08-25T02:19:35.716Z,1009.32
2017-08-25T02:20:17.086Z,1009.33
2017-08-25T02:20:57.386Z,1009.31
2017-08-25T02:21:37.722Z,1009.33
2017-08-25T02:22:18.157Z,1009.31
2017-08-25T02:22:58.642Z,1009.31
2017-08-25T02:23:39.073Z,1009.3
2017-08-25T02:24:19.485Z,1009.32
2017-08-25T02:24:59.936Z,1009.3
2017-08-25T02:25:40.392Z,1009.34
2017-08-25T02:26:20.807Z,1009.31
2017-08-25T02:27:01.607Z,1009.3
2017-08-25T02:27:42.045Z,1009.31
2017-08-25T02:28:22.584Z,1009.31
2017-08-25T02:29:02.960Z,1009.31
2017-08-25T02:29:43.514Z,1009.29
2017-08-25T02:30:23.970Z,1009.27
2017-08-25T02:31:04.310Z,1009.28
2017-08-25T02:31:45.038Z,1009.26
2017-08-25T02:32:25.414Z,1009.25
2017-08-25T02:33:05.981Z,1009.25
2017-08-25T02:33:46.481Z,1009.25
2017-08-25T02:34:26.927Z,1009.22
2017-08-25T02:46:39.746Z,1009.19
2017-08-25T02:47:36.793Z,1009.18
2017-08-25T02:48:29.762Z,1009.17
2017-08-25T02:49:26.931Z,1009.2
2017-08-25T02:50:24.907Z,1009.21
2017-08-25T02:51:20.640Z,1009.24
2017-08-25T02:52:15.518Z,1009.2
2017-08-25T02:53:11.879Z,1009.23
2017-08-25T02:54:05.970Z,1009.2
2017-08-25T02:55:03.447Z,1009.2
2017-08-25T02:56:00.663Z,1009.18
2017-08-25T02:57:00.132Z,1009.19
2017-08-25T02:58:02.523Z,1009.15
2017-08-25T02:58:59.987Z,1009.13
2017-08-25T02:59:59.575Z,1009.14
2017-08-25T03:02:34.505Z,1009.19
2017-08-25T03:03:14.977Z,1009.18
2017-08-25T03:03:55.346Z,1009.21
2017-08-25T03:04:35.809Z,1009.21
2017-08-25T03:05:16.467Z,1009.2
2017-08-25T03:05:56.968Z,1009.21
2017-08-25T03:06:37.393Z,1009.22
2017-08-25T03:07:17.769Z,1009.21
2017-08-25T03:07:58.282Z,1009.18
2017-08-25T03:08:38.566Z,1009.17
2017-08-25T03:09:19.065Z,1009.18
2017-08-25T03:09:59.501Z,1009.16
2017-08-25T03:10:39.901Z,1009.12
2017-08-25T03:11:20.259Z,1009.17
2017-08-25T03:12:00.672Z,1009.16
2017-08-25T03:12:41.200Z,1009.15
2017-08-25T03:13:21.581Z,1009.13
2017-08-25T03:14:02.043Z,1009.15
2017-08-25T03:14:42.570Z,1009.14
2017-08-25T03:15:22.929Z,1009.1
2017-08-25T03:16:03.341Z,1009.11
2017-08-25T03:16:43.791Z,1009.09
2017-08-25T03:17:24.232Z,1009.1
2017-08-25T03:18:04.769Z,1009.12
2017-08-25T03:18:45.238Z,1009.12
2017-08-25T03:19:25.703Z,1009.13
2017-08-25T03:20:06.278Z,1009.12
2017-08-25T03:20:46.665Z,1009.1
2017-08-25T03:21:27.030Z,1009.08
2017-08-25T03:22:07.367Z,1009.1
2017-08-25T03:22:47.884Z,1009.09
2017-08-25T03:23:28.269Z,1009.07
2017-08-25T03:24:08.749Z,1009.03
2017-08-25T03:24:49.077Z,1009.03
2017-08-25T03:25:29.588Z,1009.02
2017-08-25T03:26:09.924Z,1008.99
2017-08-25T03:26:50.310Z,1008.99
2017-08-25T03:27:30.726Z,1008.99
2017-08-25T03:28:11.126Z,1008.97
2017-08-25T03:28:51.622Z,1008.99
2017-08-25T03:29:31.939Z,1009.01
2017-08-25T03:30:12.346Z,1008.98
2017-08-25T03:30:53.018Z,1009.02
2017-08-25T03:31:33.403Z,1009.04
2017-08-25T03:32:13.799Z,1009.04
2017-08-25T03:32:54.233Z,1009.03
2017-08-25T03:33:34.546Z,1009.04
2017-08-25T03:34:15.025Z,1009.03
2017-08-25T03:34:55.580Z,1009.04
2017-08-25T03:35:35.901Z,1009.04
2017-08-25T03:36:16.374Z,1009.08
2017-08-25T03:36:56.757Z,1009.1
2017-08-25T03:37:37.148Z,1009.1
2017-08-25T03:38:17.543Z,1009.08
2017-08-25T03:38:57.871Z,1009.06
2017-08-25T03:39:38.633Z,1009.08
2017-08-25T03:40:18.969Z,1009.07
2017-08-25T03:40:59.351Z,1009.01
2017-08-25T03:41:39.731Z,1009
2017-08-25T03:42:20.191Z,1008.95
2017-08-25T03:43:00.603Z,1008.94
2017-08-25T03:43:41.064Z,1008.97
2017-08-25T03:44:21.407Z,1008.95
2017-08-25T03:45:01.810Z,1009.04
2017-08-25T03:45:42.290Z,1008.97
2017-08-25T03:46:23.382Z,1009.03
2017-08-25T03:47:03.773Z,1009.04
2017-08-25T03:47:44.304Z,1009.04
2017-08-25T03:48:24.665Z,1009.03
2017-08-25T03:49:05.043Z,1009.01
2017-08-25T03:49:45.436Z,1009.05
2017-08-25T03:50:25.913Z,1009.03
2017-08-25T03:51:06.256Z,1009.02
2017-08-25T03:51:46.680Z,1009.06
2017-08-25T03:52:27.166Z,1009.06
2017-08-25T03:53:07.478Z,1009.08
2017-08-25T03:53:48.041Z,1009.1
2017-08-25T03:54:28.245Z,1009.1
2017-08-25T03:55:08.793Z,1009.14
2017-08-25T03:55:49.103Z,1009.11
2017-08-25T03:56:29.644Z,1009.13
2017-08-25T03:57:10.004Z,1009.14
2017-08-25T03:57:50.389Z,1009.1
2017-08-25T03:58:30.967Z,1009.08
2017-08-25T03:59:11.350Z,1009.1
2017-08-25T03:59:51.781Z,1009.11
2017-08-25T04:00:32.196Z,1009.13
2017-08-25T04:01:12.569Z,1009.11
2017-08-25T04:01:53.069Z,1009.15
2017-08-25T04:02:33.486Z,1009.18
2017-08-25T04:03:13.975Z,1009.19
2017-08-25T04:03:54.469Z,1009.21
2017-08-25T04:04:34.916Z,1009.2
2017-08-25T04:05:15.318Z,1009.2
2017-08-25T04:05:55.956Z,1009.21
2017-08-25T04:06:36.406Z,1009.19
2017-08-25T04:07:16.818Z,1009.16
2017-08-25T04:07:57.250Z,1009.12
2017-08-25T04:08:37.820Z,1009.1
2017-08-25T04:09:18.208Z,1009.06
2017-08-25T04:09:58.622Z,1009.1
2017-08-25T04:10:39.069Z,1009.08
2017-08-25T04:11:19.448Z,1009.13
2017-08-25T04:11:59.857Z,1009.1
2017-08-25T04:12:40.310Z,1009.12
2017-08-25T04:13:20.749Z,1009.12
2017-08-25T04:14:01.192Z,1009.19
2017-08-25T04:14:41.591Z,1009.2
2017-08-25T04:15:21.993Z,1009.19
2017-08-25T04:16:02.458Z,1009.24
2017-08-25T04:16:42.856Z,1009.25
2017-08-25T04:17:23.225Z,1009.22
2017-08-25T04:18:03.857Z,1009.28
2017-08-25T04:18:44.510Z,1009.25
2017-08-25T04:19:24.643Z,1009.28
2017-08-25T04:20:05.153Z,1009.29
2017-08-25T04:20:45.679Z,1009.3
2017-08-25T04:21:25.813Z,1009.29
2017-08-25T04:22:06.289Z,1009.28
2017-08-25T04:22:46.721Z,1009.28
2017-08-25T04:23:27.110Z,1009.27
2017-08-25T04:24:07.601Z,1009.25
2017-08-25T04:24:47.982Z,1009.26
2017-08-25T04:25:28.348Z,1009.24
2017-08-25T04:26:08.734Z,1009.22
2017-08-25T04:26:49.266Z,1009.25
2017-08-25T04:27:29.628Z,1009.22
2017-08-25T04:28:10.220Z,1009.19
2017-08-25T04:28:50.667Z,1009.2
2017-08-25T04:29:30.980Z,1009.19
2017-08-25T04:30:11.549Z,1009.19
2017-08-25T04:30:51.888Z,1009.18
2017-08-25T04:31:32.330Z,1009.19
2017-08-25T04:32:12.863Z,1009.2
2017-08-25T04:32:53.221Z,1009.2
2017-08-25T04:33:33.713Z,1009.21
2017-08-25T04:34:14.258Z,1009.2
2017-08-25T04:34:54.565Z,1009.23
2017-08-25T04:35:35.009Z,1009.28
2017-08-25T04:36:15.400Z,1009.26
2017-08-25T04:36:55.795Z,1009.31
2017-08-25T04:37:36.236Z,1009.28
2017-08-25T04:38:16.621Z,1009.31
2017-08-25T04:38:57.017Z,1009.35
2017-08-25T04:39:37.502Z,1009.36
2017-08-25T04:40:17.857Z,1009.35
2017-08-25T04:40:58.466Z,1009.35
2017-08-25T04:41:38.843Z,1009.35
2017-08-25T04:42:19.179Z,1009.36
2017-08-25T04:42:59.696Z,1009.31
2017-08-25T04:43:40.104Z,1009.33
2017-08-25T04:44:20.533Z,1009.36
2017-08-25T04:45:00.877Z,1009.36
2017-08-25T04:45:41.268Z,1009.33
2017-08-25T04:46:21.667Z,1009.33
2017-08-25T04:47:02.214Z,1009.36
2017-08-25T04:47:42.595Z,1009.4
2017-08-25T04:48:23.018Z,1009.4
2017-08-25T04:49:03.738Z,1009.37
2017-08-25T04:49:43.929Z,1009.38
2017-08-25T04:50:24.285Z,1009.4
2017-08-25T04:51:04.793Z,1009.4
2017-08-25T04:51:45.167Z,1009.37
2017-08-25T04:52:25.536Z,1009.36
2017-08-25T04:53:05.995Z,1009.32
2017-08-25T04:53:46.485Z,1009.41
2017-08-25T04:54:27.011Z,1009.36
2017-08-25T04:55:09.806Z,1009.38
2017-08-25T04:55:50.292Z,1009.35
2017-08-25T04:56:30.781Z,1009.38
2017-08-25T04:57:11.166Z,1009.39
2017-08-25T04:57:51.505Z,1009.34
2017-08-25T04:58:31.925Z,1009.36
2017-08-25T04:59:12.508Z,1009.33
2017-08-25T04:59:53.308Z,1009.37
2017-08-25T05:00:37.895Z,1009.36
2017-08-25T05:01:18.231Z,1009.35
2017-08-25T05:01:58.733Z,1009.4
2017-08-25T05:02:39.154Z,1009.44
2017-08-25T05:03:19.711Z,1009.46
2017-08-25T05:04:00.191Z,1009.43
2017-08-25T05:04:40.576Z,1009.46
2017-08-25T05:05:21.009Z,1009.43
2017-08-25T05:06:01.583Z,1009.42
2017-08-25T05:06:42.005Z,1009.43
2017-08-25T05:07:22.322Z,1009.41
2017-08-25T05:08:02.981Z,1009.42
2017-08-25T05:08:43.416Z,1009.43
2017-08-25T05:09:23.887Z,1009.43
2017-08-25T05:10:04.330Z,1009.42
2017-08-25T05:10:45.575Z,1009.43
2017-08-25T05:11:26.083Z,1009.46
2017-08-25T05:12:06.559Z,1009.47
2017-08-25T05:12:47.599Z,1009.49
2017-08-25T05:13:28.030Z,1009.45
2017-08-25T05:14:08.522Z,1009.42
2017-08-25T05:14:48.856Z,1009.42
2017-08-25T05:15:29.414Z,1009.43
2017-08-25T05:16:09.735Z,1009.44
2017-08-25T05:16:50.338Z,1009.38
2017-08-25T05:17:30.802Z,1009.4
2017-08-25T05:23:24.437Z,1009.44
2017-08-25T05:24:29.071Z,1009.42
2017-08-25T05:25:33.533Z,1009.38
2017-08-25T05:26:34.961Z,1009.4
2017-08-25T05:27:36.058Z,1009.35
2017-08-25T05:28:39.183Z,1009.39
2017-08-25T05:29:40.048Z,1009.39
2017-08-25T05:30:35.597Z,1009.43
2017-08-25T05:31:30.428Z,1009.42
2017-08-25T05:32:18.877Z,1009.44
2017-08-25T05:32:59.214Z,1009.41
2017-08-25T05:33:39.701Z,1009.41
2017-08-25T05:34:20.122Z,1009.45
2017-08-25T05:35:00.508Z,1009.41
2017-08-25T05:35:41.059Z,1009.39
2017-08-25T05:36:21.435Z,1009.4
2017-08-25T05:37:01.922Z,1009.4
2017-08-25T05:37:42.284Z,1009.33
2017-08-25T05:40:03.197Z,1009.3
2017-08-25T05:40:43.658Z,1009.3
2017-08-25T05:41:24.033Z,1009.28
2017-08-25T05:42:04.481Z,1009.27
2017-08-25T05:42:44.926Z,1009.27
2017-08-25T05:43:25.677Z,1009.25
2017-08-25T05:44:06.165Z,1009.25
2017-08-25T05:44:46.659Z,1009.22
2017-08-25T05:45:27.345Z,1009.19
2017-08-25T05:46:07.736Z,1009.2
2017-08-25T05:46:48.222Z,1009.2
2017-08-25T05:47:28.524Z,1009.23
2017-08-25T05:48:09.033Z,1009.23
2017-08-25T05:48:49.421Z,1009.23
2017-08-25T05:49:29.917Z,1009.25
2017-08-25T05:50:10.460Z,1009.29
2017-08-25T05:50:50.927Z,1009.33
2017-08-25T05:51:31.467Z,1009.33
2017-08-25T05:52:11.795Z,1009.32
2017-08-25T05:52:52.163Z,1009.34
2017-08-25T05:53:32.602Z,1009.37
2017-08-25T05:54:13.039Z,1009.43
2017-08-25T05:54:53.408Z,1009.44
2017-08-25T05:55:34.169Z,1009.4
2017-08-25T05:56:14.720Z,1009.4
2017-08-25T05:56:55.151Z,1009.42
2017-08-25T05:57:35.715Z,1009.41
2017-08-25T05:58:16.201Z,1009.39
2017-08-25T05:58:56.652Z,1009.41
2017-08-25T05:59:37.160Z,1009.4
2017-08-25T06:00:17.492Z,1009.4
2017-08-25T06:00:57.858Z,1009.42
2017-08-25T06:01:38.662Z,1009.41
2017-08-25T06:02:19.055Z,1009.38
2017-08-25T06:02:59.478Z,1009.44
2017-08-25T06:03:39.948Z,1009.45
2017-08-25T06:04:20.472Z,1009.42
2017-08-25T06:05:01.271Z,1009.46
2017-08-25T06:05:41.721Z,1009.47
2017-08-25T06:06:22.365Z,1009.49
2017-08-25T06:07:03.036Z,1009.5
2017-08-25T06:07:43.504Z,1009.52
2017-08-25T06:08:23.918Z,1009.54
2017-08-25T06:09:04.302Z,1009.52
2017-08-25T06:09:45.409Z,1009.52
2017-08-25T06:10:25.779Z,1009.49
2017-08-25T06:11:06.333Z,1009.48
2017-08-25T06:11:47.224Z,1009.45
2017-08-25T06:12:28.597Z,1009.43
2017-08-25T06:13:09.012Z,1009.37
2017-08-25T06:13:49.609Z,1009.35
2017-08-25T06:14:30.980Z,1009.36
2017-08-25T06:15:11.232Z,1009.4
2017-08-25T06:15:51.807Z,1009.35
2017-08-25T06:16:33.636Z,1009.36
2017-08-25T06:17:14.739Z,1009.32
2017-08-25T06:17:55.221Z,1009.32
2017-08-25T06:18:35.612Z,1009.36
2017-08-25T06:19:16.102Z,1009.4
2017-08-25T06:19:56.472Z,1009.43
2017-08-25T06:20:37.033Z,1009.45
2017-08-25T06:21:18.189Z,1009.45
2017-08-25T06:21:58.611Z,1009.46
2017-08-25T06:22:39.067Z,1009.46
2017-08-25T06:23:19.592Z,1009.46
2017-08-25T06:24:00.086Z,1009.45
2017-08-25T06:24:40.422Z,1009.46
2017-08-25T06:25:20.761Z,1009.48
2017-08-25T06:26:01.188Z,1009.51
2017-08-25T06:26:41.766Z,1009.5
2017-08-25T06:27:22.612Z,1009.5
2017-08-25T06:28:03.325Z,1009.52
2017-08-25T06:28:43.806Z,1009.53
2017-08-25T06:29:24.270Z,1009.55
2017-08-25T06:30:04.705Z,1009.56
2017-08-25T06:30:45.164Z,1009.55
2017-08-25T06:31:25.677Z,1009.59
2017-08-25T06:32:06.071Z,1009.56
2017-08-25T06:32:46.455Z,1009.61
2017-08-25T06:33:26.834Z,1009.68
2017-08-25T06:34:07.274Z,1009.61
2017-08-25T06:34:47.764Z,1009.62
2017-08-25T06:35:28.221Z,1009.62
2017-08-25T06:36:08.617Z,1009.66
2017-08-25T06:36:49.006Z,1009.6
2017-08-25T06:37:29.589Z,1009.66
2017-08-25T06:38:09.902Z,1009.64
2017-08-25T06:38:50.353Z,1009.67
2017-08-25T06:39:30.784Z,1009.67
2017-08-25T06:40:11.185Z,1009.72
2017-08-25T06:40:51.891Z,1009.7
2017-08-25T06:41:32.554Z,1009.73
2017-08-25T06:42:13.046Z,1009.7
2017-08-25T06:46:04.841Z,1009.65
2017-08-25T06:47:05.380Z,1009.61
2017-08-25T06:51:14.159Z,1009.58
2017-08-25T06:51:54.481Z,1009.62
2017-08-25T06:52:35.074Z,1009.59
2017-08-25T06:53:15.576Z,1009.6
2017-08-25T06:53:56.053Z,1009.59
2017-08-25T06:54:36.377Z,1009.62
2017-08-25T06:55:16.944Z,1009.58
2017-08-25T06:55:57.668Z,1009.55
2017-08-25T06:56:38.145Z,1009.54
2017-08-25T06:57:18.466Z,1009.59
2017-08-25T06:57:59.081Z,1009.56
2017-08-25T06:58:39.937Z,1009.57
2017-08-25T07:01:07.561Z,1009.49
2017-08-25T07:01:48.011Z,1009.48
2017-08-25T07:02:28.523Z,1009.52
2017-08-25T07:03:08.946Z,1009.49
2017-08-25T07:03:49.365Z,1009.55
2017-08-25T07:04:29.864Z,1009.53
2017-08-25T07:05:10.495Z,1009.53
2017-08-25T07:05:50.949Z,1009.52
2017-08-25T07:06:31.351Z,1009.54
2017-08-25T07:07:11.767Z,1009.54
2017-08-25T07:07:52.199Z,1009.54
2017-08-25T07:08:32.654Z,1009.56
2017-08-25T07:09:14.348Z,1009.63
2017-08-25T07:09:54.080Z,1009.59
2017-08-25T07:10:34.431Z,1009.68
2017-08-25T07:11:14.833Z,1009.59
2017-08-25T07:11:55.332Z,1009.63
2017-08-25T07:12:35.714Z,1009.62
2017-08-25T07:13:17.239Z,1009.63
2017-08-25T07:13:57.688Z,1009.65
2017-08-25T07:14:38.871Z,1009.6
2017-08-25T07:15:19.159Z,1009.67
2017-08-25T07:15:59.456Z,1009.66
2017-08-25T07:16:40.651Z,1009.65
2017-08-25T07:17:21.259Z,1009.72
2017-08-25T07:18:01.893Z,1009.7
2017-08-25T07:27:54.251Z,1009.81
2017-08-25T07:28:57.524Z,1009.82
2017-08-25T07:29:55.362Z,1009.75
2017-08-25T07:30:54.749Z,1009.75
2017-08-25T07:31:55.462Z,1009.76
2017-08-25T07:32:59.722Z,1009.75
2017-08-25T07:33:59.933Z,1009.71
2017-08-25T07:35:02.914Z,1009.72
2017-08-25T07:36:02.174Z,1009.72
2017-08-25T07:37:08.563Z,1009.75
2017-08-25T07:38:19.051Z,1009.7
2017-08-25T07:39:41.381Z,1009.75
2017-08-25T07:40:45.806Z,1009.76
2017-08-25T07:41:48.195Z,1009.74
2017-08-25T07:42:36.218Z,1009.83
2017-08-25T07:43:16.640Z,1009.83
2017-08-25T07:43:57.117Z,1009.85
2017-08-25T07:44:37.500Z,1009.84
2017-08-25T07:45:17.938Z,1009.85
2017-08-25T07:45:58.383Z,1009.85
2017-08-25T07:46:38.860Z,1009.87
2017-08-25T07:47:19.290Z,1009.86
2017-08-25T07:47:59.719Z,1009.9
2017-08-25T07:48:40.210Z,1009.87
2017-08-25T07:49:20.613Z,1009.84
2017-08-25T07:50:00.988Z,1009.86
2017-08-25T07:50:41.395Z,1009.88
2017-08-25T07:51:21.832Z,1009.85
2017-08-25T07:52:02.150Z,1009.91
2017-08-25T07:52:42.617Z,1009.88
2017-08-25T07:53:23.192Z,1009.87
2017-08-25T07:54:03.600Z,1009.84
2017-08-25T07:54:43.958Z,1009.82
2017-08-25T07:55:24.461Z,1009.85
2017-08-25T07:56:04.824Z,1009.8
2017-08-25T07:56:45.244Z,1009.78
2017-08-25T07:57:25.871Z,1009.81
2017-08-25T07:58:06.366Z,1009.85
2017-08-25T07:58:46.778Z,1009.83
2017-08-25T07:59:27.170Z,1009.84
2017-08-25T08:00:07.550Z,1009.87
2017-08-25T08:00:47.960Z,1009.89
2017-08-25T08:01:28.424Z,1009.88
2017-08-25T08:02:08.989Z,1009.92
2017-08-25T08:02:49.424Z,1009.92
2017-08-25T08:03:29.867Z,1009.87
2017-08-25T08:04:10.206Z,1009.89
2017-08-25T08:04:50.703Z,1009.88
2017-08-25T08:05:31.092Z,1009.85
2017-08-25T08:06:11.529Z,1009.89
2017-08-25T08:06:51.992Z,1009.86
2017-08-25T08:07:32.745Z,1009.88
2017-08-25T08:08:13.246Z,1009.85
2017-08-25T08:08:53.992Z,1009.83
2017-08-25T08:09:34.538Z,1009.85
2017-08-25T08:10:14.895Z,1009.82
2017-08-25T08:10:56.113Z,1009.82
2017-08-25T08:11:41.824Z,1009.88
2017-08-25T08:12:22.263Z,1009.87
2017-08-25T08:13:03.025Z,1009.9
2017-08-25T08:13:43.308Z,1009.91
2017-08-25T08:14:23.688Z,1009.91
2017-08-25T08:15:04.424Z,1009.88
2017-08-25T08:15:45.073Z,1009.89
2017-08-25T08:16:25.454Z,1009.9
2017-08-25T08:17:06.805Z,1009.85
2017-08-25T08:17:46.884Z,1009.83
2017-08-25T08:18:28.131Z,1009.85
2017-08-25T08:19:09.268Z,1009.81
2017-08-25T08:19:51.175Z,1009.77
2017-08-25T08:20:31.549Z,1009.8
2017-08-25T08:21:12.060Z,1009.79
2017-08-25T08:21:52.887Z,1009.8
2017-08-25T08:22:33.274Z,1009.79
2017-08-25T08:23:13.635Z,1009.8
2017-08-25T08:23:54.355Z,1009.81
2017-08-25T08:24:35.154Z,1009.8
2017-08-25T08:25:15.359Z,1009.75
2017-08-25T08:25:57.786Z,1009.75
2017-08-25T08:26:37.730Z,1009.74
2017-08-25T08:27:18.053Z,1009.72
2017-08-25T08:27:58.937Z,1009.71
2017-08-25T08:28:39.236Z,1009.72
2017-08-25T08:29:19.574Z,1009.7
2017-08-25T08:30:00.134Z,1009.73
2017-08-25T08:30:40.516Z,1009.68
2017-08-25T08:31:21.035Z,1009.69
2017-08-25T08:32:01.310Z,1009.72
2017-08-25T08:32:44.428Z,1009.67
2017-08-25T08:33:24.829Z,1009.68
2017-08-25T08:34:06.294Z,1009.71
2017-08-25T08:34:46.718Z,1009.69
2017-08-25T08:35:27.207Z,1009.71
2017-08-25T08:36:07.751Z,1009.68
2017-08-25T08:36:48.206Z,1009.71
2017-08-25T08:37:28.639Z,1009.72
2017-08-25T08:38:09.091Z,1009.73
2017-08-25T08:38:49.448Z,1009.79
2017-08-25T08:39:29.856Z,1009.79
2017-08-25T08:40:10.281Z,1009.82
2017-08-25T08:40:50.602Z,1009.84
2017-08-25T08:41:31.075Z,1009.84
2017-08-25T08:42:11.591Z,1009.85
2017-08-25T08:42:52.054Z,1009.9
2017-08-25T08:43:32.435Z,1009.82
2017-08-25T08:44:12.862Z,1009.77
2017-08-25T08:44:53.329Z,1009.82
2017-08-25T08:45:34.053Z,1009.81
2017-08-25T08:46:14.510Z,1009.81
2017-08-25T08:52:42.904Z,1009.73
2017-08-25T08:53:49.986Z,1009.74
2017-08-25T08:55:00.026Z,1009.74
2017-08-25T08:56:31.903Z,1009.7
2017-08-25T09:00:20.355Z,1009.6
2017-08-25T09:02:21.974Z,1009.63
2017-08-25T09:03:27.584Z,1009.61
2017-08-25T09:04:32.967Z,1009.6
2017-08-25T09:05:38.348Z,1009.6
2017-08-25T09:06:52.268Z,1009.63
2017-08-25T09:10:26.673Z,1009.53
2017-08-25T09:11:07.150Z,1009.53
2017-08-25T09:11:47.663Z,1009.53
2017-08-25T09:12:29.714Z,1009.54
2017-08-25T09:13:12.488Z,1009.57
2017-08-25T09:13:53.682Z,1009.56
2017-08-25T09:14:34.491Z,1009.54
2017-08-25T09:15:17.433Z,1009.57
2017-08-25T09:15:58.137Z,1009.56
2017-08-25T09:16:39.203Z,1009.58
2017-08-25T09:17:26.108Z,1009.64
2017-08-25T09:18:06.460Z,1009.56
2017-08-25T09:18:47.613Z,1009.59
2017-08-25T09:19:28.229Z,1009.59
2017-08-25T09:20:08.710Z,1009.56
2017-08-25T09:20:51.704Z,1009.51
2017-08-25T09:21:32.188Z,1009.52
2017-08-25T09:22:12.704Z,1009.53
2017-08-25T09:22:53.132Z,1009.51
2017-08-25T09:23:34.525Z,1009.53
2017-08-25T09:24:16.263Z,1009.51
2017-08-25T09:24:56.667Z,1009.55
2017-08-25T09:25:37.280Z,1009.49
2017-08-25T09:26:17.877Z,1009.52
2017-08-25T09:26:58.820Z,1009.51
2017-08-25T09:27:39.560Z,1009.48
2017-08-25T09:28:20.329Z,1009.54
2017-08-25T09:29:01.037Z,1009.58
2017-08-25T09:29:43.206Z,1009.56
2017-08-25T09:30:23.719Z,1009.52
2017-08-25T09:31:05.009Z,1009.55
2017-08-25T09:31:45.587Z,1009.53
2017-08-25T09:32:27.072Z,1009.53
2017-08-25T09:33:07.441Z,1009.49
2017-08-25T09:33:47.927Z,1009.57
2017-08-25T09:34:29.370Z,1009.58
2017-08-25T09:35:09.701Z,1009.54
2017-08-25T09:35:50.122Z,1009.55
2017-08-25T09:36:30.610Z,1009.57
2017-08-25T09:37:11.080Z,1009.52
2017-08-25T09:37:51.555Z,1009.53
2017-08-25T09:38:32.828Z,1009.52
2017-08-25T09:39:13.218Z,1009.54
2017-08-25T09:39:53.643Z,1009.51
2017-08-25T09:40:34.133Z,1009.51
2017-08-25T09:41:16.027Z,1009.5
2017-08-25T09:41:56.942Z,1009.54
2017-08-25T09:42:37.214Z,1009.49
2017-08-25T09:43:17.693Z,1009.52
2017-08-25T09:43:58.117Z,1009.48
2017-08-25T09:44:38.506Z,1009.44
2017-08-25T09:45:19.019Z,1009.47
2017-08-25T09:45:59.506Z,1009.46
2017-08-25T09:46:40.225Z,1009.48
2017-08-25T09:47:20.587Z,1009.48
2017-08-25T09:48:02.351Z,1009.47
2017-08-25T09:48:42.761Z,1009.46
2017-08-25T09:49:23.384Z,1009.41
2017-08-25T09:50:04.039Z,1009.44
2017-08-25T09:50:44.728Z,1009.43
2017-08-25T09:51:25.184Z,1009.39
2017-08-25T09:52:06.891Z,1009.41
2017-08-25T09:52:49.510Z,1009.39
2017-08-25T09:53:29.918Z,1009.4
2017-08-25T09:54:10.422Z,1009.4
2017-08-25T09:54:51.021Z,1009.43
2017-08-25T09:55:32.752Z,1009.46